createdAt,value
2019-04-05T00:01:07.693Z,21.00
2019-04-05T00:06:12.748Z,22.03
2019-04-05T00:11:17.950Z,17.50
2019-04-05T00:16:22.963Z,19.03
2019-04-05T00:21:28.009Z,18.83
2019-04-05T00:26:34.153Z,16.63
2019-04-05T00:31:39.395Z,16.73
2019-04-05T00:36:44.471Z,15.20
2019-04-05T00:41:49.695Z,18.53
2019-04-05T00:46:54.681Z,15.53
2019-04-05T00:52:00.108Z,16.80
2019-04-05T00:57:05.230Z,18.27
2019-04-05T01:02:12.755Z,17.13
2019-04-05T01:07:16.905Z,19.33
2019-04-05T01:12:23.858Z,20.20
2019-04-05T01:17:28.877Z,20.70
2019-04-05T01:22:35.215Z,23.03
2019-04-05T01:27:41.805Z,23.67
2019-04-05T01:32:47.796Z,28.87
2019-04-05T01:37:53.445Z,28.17
2019-04-05T01:42:59.242Z,28.83
2019-04-05T01:48:04.246Z,28.53
2019-04-05T01:53:10.374Z,29.93
2019-04-05T01:58:17.130Z,35.67
2019-04-05T02:03:22.221Z,32.77
2019-04-05T02:08:27.349Z,30.87
2019-04-05T02:13:32.406Z,32.37
2019-04-05T02:18:37.651Z,33.33
2019-04-05T02:23:42.676Z,36.40
2019-04-05T02:28:47.702Z,37.53
2019-04-05T02:33:53.125Z,32.43
2019-04-05T02:38:58.260Z,36.20
2019-04-05T02:44:03.712Z,34.03
2019-04-05T02:49:09.243Z,31.07
2019-04-05T02:54:15.523Z,35.33
2019-04-05T02:59:21.162Z,30.17
2019-04-05T03:04:26.687Z,32.93
2019-04-05T03:09:32.423Z,33.50
2019-04-05T03:14:39.091Z,34.87
2019-04-05T03:19:47.190Z,34.47
2019-04-05T03:24:53.664Z,39.00
2019-04-05T03:29:59.026Z,31.17
2019-04-05T03:35:04.652Z,30.40
2019-04-05T03:40:10.221Z,34.77
2019-04-05T03:45:15.787Z,35.97
2019-04-05T03:50:20.942Z,37.10
2019-04-05T03:55:26.308Z,36.73
2019-04-05T04:00:31.508Z,32.27
2019-04-05T04:05:36.682Z,35.33
2019-04-05T04:10:42.054Z,32.43
2019-04-05T04:15:47.718Z,33.60
2019-04-05T04:20:56.149Z,29.70
2019-04-05T04:26:02.125Z,34.23
2019-04-05T04:31:08.335Z,34.43
2019-04-05T04:36:15.269Z,37.20
2019-04-05T04:41:21.926Z,40.40
2019-04-05T04:46:29.508Z,39.50
2019-04-05T04:51:35.295Z,40.10
2019-04-05T04:56:40.651Z,38.97
2019-04-05T05:01:46.616Z,40.17
2019-04-05T05:06:51.961Z,37.17
2019-04-05T05:11:57.466Z,42.23
2019-04-05T05:17:03.024Z,38.43
2019-04-05T05:22:08.394Z,41.33
2019-04-05T05:27:13.998Z,32.63
2019-04-05T05:32:19.217Z,40.07
2019-04-05T05:37:24.781Z,31.40
2019-04-05T05:42:29.811Z,32.80
2019-04-05T05:47:35.171Z,29.97
2019-04-05T05:52:40.635Z,28.37
2019-04-05T05:57:46.020Z,28.43
2019-04-05T06:08:12.984Z,27.23
2019-04-05T06:13:18.188Z,31.23
2019-04-05T06:18:23.304Z,26.83
2019-04-05T06:23:34.072Z,27.43
2019-04-05T06:28:35.065Z,20.73
2019-04-05T06:33:40.106Z,24.60
2019-04-05T06:38:47.057Z,25.53
2019-04-05T06:43:58.408Z,22.83
2019-04-05T06:49:03.561Z,29.77
2019-04-05T06:54:08.614Z,31.37
2019-04-05T06:59:13.701Z,31.87
2019-04-05T07:04:18.936Z,28.53
2019-04-05T07:09:24.396Z,30.20
2019-04-05T07:14:29.472Z,29.40
2019-04-05T07:19:34.528Z,29.23
2019-04-05T07:24:40.895Z,28.77
2019-04-05T07:29:45.934Z,26.23
2019-04-05T07:34:50.973Z,30.17
2019-04-05T07:39:56.008Z,29.87
2019-04-05T07:45:02.930Z,30.47
2019-04-05T07:50:09.928Z,34.10
2019-04-05T07:55:15.968Z,36.80
2019-04-05T08:00:42.409Z,33.23
2019-04-05T08:05:48.349Z,35.13
2019-04-05T08:10:54.248Z,38.30
2019-04-05T08:16:01.758Z,36.13
2019-04-05T08:21:07.118Z,37.73
2019-04-05T08:26:14.073Z,37.60
2019-04-05T08:31:19.070Z,38.87
2019-04-05T08:36:25.942Z,37.00
2019-04-05T08:41:33.053Z,39.10
2019-04-05T08:46:38.056Z,33.73
2019-04-05T08:51:43.126Z,37.47
2019-04-05T08:56:48.332Z,39.87
2019-04-05T09:01:53.691Z,35.47
2019-04-05T09:06:59.058Z,37.67
2019-04-05T09:12:04.085Z,38.70
2019-04-05T09:17:09.163Z,33.37
2019-04-05T09:22:16.451Z,29.03
2019-04-05T09:27:22.577Z,37.57
2019-04-05T09:32:28.314Z,32.47
2019-04-05T09:37:33.447Z,33.23
2019-04-05T09:42:40.178Z,25.23
2019-04-05T09:47:45.395Z,24.50
2019-04-05T09:52:50.678Z,27.80
2019-04-05T09:57:55.734Z,23.17
2019-04-05T10:03:00.765Z,28.33
2019-04-05T10:08:07.644Z,23.93
2019-04-05T10:13:14.146Z,19.63
2019-04-05T10:18:19.194Z,26.67
2019-04-05T10:23:24.379Z,23.50
2019-04-05T10:28:29.761Z,24.47
2019-04-05T10:33:34.768Z,26.17
2019-04-05T10:38:39.919Z,19.97
2019-04-05T10:43:45.208Z,18.67
2019-04-05T10:48:50.337Z,18.07
2019-04-05T10:53:55.399Z,18.07
2019-04-05T10:59:00.656Z,19.00
2019-04-05T11:04:05.699Z,16.07
2019-04-05T11:09:10.783Z,15.33
2019-04-05T11:14:16.908Z,17.73
2019-04-05T11:19:22.428Z,16.77
2019-04-05T11:24:27.483Z,12.27
2019-04-05T11:29:32.508Z,17.97
2019-04-05T11:34:38.641Z,13.27
2019-04-05T11:39:48.273Z,14.73
2019-04-05T11:44:53.903Z,13.07
2019-04-05T11:50:01.969Z,12.73
2019-04-05T11:55:07.585Z,11.03
2019-04-05T12:00:18.908Z,14.07
2019-04-05T12:05:26.941Z,11.60
2019-04-05T12:10:32.658Z,9.77
2019-04-05T12:15:37.992Z,14.53
2019-04-05T12:20:49.697Z,14.63
2019-04-05T12:25:49.633Z,12.77
2019-04-05T12:30:54.988Z,14.20
2019-04-05T12:36:01.904Z,13.07
2019-04-05T12:41:10.659Z,12.27
2019-04-05T12:46:16.117Z,12.77
2019-04-05T12:57:27.896Z,10.80
2019-04-05T13:02:34.141Z,14.17
2019-04-05T13:07:39.386Z,11.50
2019-04-05T13:12:44.443Z,12.40
2019-04-05T13:17:49.736Z,13.23
2019-04-05T13:22:54.772Z,13.23
2019-04-05T13:27:59.798Z,12.50
2019-04-05T13:33:05.292Z,12.40
2019-04-05T13:38:12.212Z,13.73
2019-04-05T13:43:17.840Z,13.43
2019-04-05T13:48:22.915Z,16.97
2019-04-05T13:53:28.038Z,15.27
2019-04-05T13:58:33.091Z,13.87
2019-04-05T14:03:38.135Z,15.50
2019-04-05T14:08:43.811Z,17.53
2019-04-05T14:13:48.937Z,18.00
2019-04-05T14:18:55.955Z,16.07
2019-04-05T14:24:04.527Z,15.20
2019-04-05T14:29:09.167Z,18.00
2019-04-05T14:34:14.302Z,18.27
2019-04-05T14:39:19.433Z,18.13
2019-04-05T14:44:24.458Z,15.97
2019-04-05T14:49:30.747Z,19.60
2019-04-05T14:54:36.164Z,18.77
2019-04-05T14:59:41.415Z,16.80
2019-04-05T15:04:49.196Z,21.70
2019-04-05T15:09:55.563Z,25.23
2019-04-05T15:15:01.778Z,25.57
2019-04-05T15:20:07.967Z,22.43
2019-04-05T15:25:16.947Z,24.23
2019-04-05T15:30:20.357Z,23.37
2019-04-05T15:35:26.481Z,20.20
2019-04-05T15:40:33.647Z,23.00
2019-04-05T15:45:38.727Z,21.30
2019-04-05T15:50:57.668Z,20.00
2019-04-05T15:56:05.133Z,22.03
2019-04-05T16:01:11.353Z,22.07
2019-04-05T16:06:16.474Z,21.17
2019-04-05T16:11:21.862Z,23.87
2019-04-05T16:16:28.207Z,18.63
2019-04-05T16:21:33.299Z,24.03
2019-04-05T16:26:44.151Z,23.33
2019-04-05T16:31:49.216Z,20.77
2019-04-05T16:36:54.260Z,21.30
2019-04-05T16:41:59.401Z,24.83
2019-04-05T16:47:04.427Z,19.70
2019-04-05T16:52:10.378Z,18.00
2019-04-05T16:57:15.436Z,21.60
2019-04-05T17:02:20.613Z,21.20
2019-04-05T17:07:25.651Z,24.50
2019-04-05T17:12:30.907Z,20.07
2019-04-05T17:17:36.260Z,19.73
2019-04-05T17:22:41.417Z,27.10
2019-04-05T17:27:46.541Z,19.80
2019-04-05T17:32:52.554Z,20.87
2019-04-05T17:37:57.569Z,27.27
2019-04-05T17:43:03.725Z,24.30
2019-04-05T17:48:08.802Z,24.40
2019-04-05T17:53:13.862Z,23.40
2019-04-05T17:58:19.386Z,24.10
2019-04-05T18:03:24.552Z,18.80
2019-04-05T18:08:29.633Z,24.13
2019-04-05T18:13:34.669Z,24.10
2019-04-05T18:18:39.695Z,25.03
2019-04-05T18:23:44.736Z,23.43
2019-04-05T18:28:49.765Z,23.37
2019-04-05T18:33:54.835Z,28.83
2019-04-05T18:38:59.856Z,25.73
2019-04-05T18:44:05.129Z,29.97
2019-04-05T18:49:10.188Z,17.60
2019-04-05T18:54:15.232Z,25.80
2019-04-05T18:59:20.276Z,25.93
2019-04-05T19:04:26.441Z,22.13
2019-04-05T19:09:31.505Z,27.10
2019-04-05T19:14:36.662Z,25.63
2019-04-05T19:19:41.849Z,24.03
2019-04-05T19:24:47.849Z,22.50
2019-04-05T19:29:52.859Z,25.07
2019-04-05T19:50:19.541Z,32.60
2019-04-05T19:55:24.717Z,32.73
2019-04-05T20:00:30.732Z,23.93
2019-04-05T20:05:35.807Z,29.13
2019-04-05T20:10:40.835Z,25.90
2019-04-05T20:15:45.865Z,34.47
2019-04-05T20:20:50.888Z,31.33
2019-04-05T20:25:55.924Z,32.43
2019-04-05T20:31:02.341Z,26.97
2019-04-05T20:36:07.393Z,35.63
2019-04-05T20:41:12.475Z,35.20
2019-04-05T20:46:17.760Z,38.53
2019-04-05T20:51:22.795Z,36.23
2019-04-05T20:56:28.178Z,33.23
2019-04-05T21:01:33.233Z,37.70
2019-04-05T21:06:38.548Z,36.77
2019-04-05T21:11:43.576Z,36.83
2019-04-05T21:16:48.685Z,34.20
2019-04-05T21:21:53.886Z,36.33
2019-04-05T21:26:59.112Z,38.27
2019-04-05T21:32:04.136Z,55.50
2019-04-05T21:37:09.169Z,39.73
2019-04-05T21:42:16.646Z,40.80
2019-04-05T21:47:20.997Z,41.30
2019-04-05T21:52:27.776Z,51.17
2019-04-05T21:57:33.780Z,46.20
2019-04-05T22:02:38.924Z,47.87
2019-04-05T22:07:44.080Z,53.90
2019-04-05T22:12:49.136Z,52.83
2019-04-05T22:17:55.006Z,43.30
2019-04-05T22:23:00.015Z,47.83
2019-04-05T22:28:05.295Z,53.70
2019-04-05T22:33:10.473Z,47.27
2019-04-05T22:38:15.464Z,48.87
2019-04-05T22:43:20.524Z,55.67
2019-04-05T22:48:25.571Z,45.10
2019-04-05T22:53:30.658Z,31.70
2019-04-05T22:58:35.716Z,37.63
2019-04-05T23:03:40.897Z,36.37
2019-04-05T23:08:46.400Z,34.53
2019-04-05T23:13:51.559Z,42.73
2019-04-05T23:18:56.708Z,50.57
2019-04-05T23:24:02.339Z,55.80
2019-04-05T23:29:07.828Z,47.77
2019-04-05T23:34:12.859Z,45.87
2019-04-05T23:39:17.906Z,26.37
2019-04-05T23:44:22.971Z,29.20
2019-04-05T23:49:28.089Z,44.67
2019-04-05T23:54:33.275Z,47.10
2019-04-05T23:59:38.296Z,46.53
